createdAt,value
2023-03-27T00:00:38.492Z,22.9058
2023-03-27T00:01:40.105Z,22.9196
2023-03-27T00:02:41.958Z,22.9128
2023-03-27T00:03:43.525Z,22.9116
2023-03-27T00:04:45.062Z,22.9270
2023-03-27T00:05:46.733Z,22.9305
2023-03-27T00:06:48.357Z,22.9358
2023-03-27T00:07:50.016Z,22.9410
2023-03-27T00:08:51.657Z,22.9360
2023-03-27T00:09:53.327Z,22.9397
2023-03-27T00:10:55.178Z,22.9482
2023-03-27T00:11:56.617Z,22.9523
2023-03-27T00:12:58.255Z,22.9710
2023-03-27T00:13:59.926Z,22.9611
2023-03-27T00:15:01.537Z,22.9584
2023-03-27T00:16:03.254Z,22.9671
2023-03-27T00:17:04.883Z,22.9669
2023-03-27T00:18:06.552Z,22.9658
2023-03-27T00:19:08.150Z,22.9621
2023-03-27T00:20:09.833Z,22.9588
2023-03-27T00:21:11.513Z,22.9714
2023-03-27T00:22:13.129Z,22.9687
2023-03-27T00:23:14.767Z,22.9765
2023-03-27T00:24:16.435Z,22.9724
2023-03-27T00:25:18.063Z,22.9730
2023-03-27T00:26:19.758Z,22.9611
2023-03-27T00:27:21.371Z,22.9664
2023-03-27T00:28:23.030Z,22.9658
2023-03-27T00:29:24.672Z,22.9648
2023-03-27T00:30:26.325Z,22.9611
2023-03-27T00:31:28.079Z,22.9623
2023-03-27T00:32:29.653Z,22.9611
2023-03-27T00:33:31.300Z,22.9699
2023-03-27T00:34:32.924Z,22.9691
2023-03-27T00:35:34.672Z,22.9658
2023-03-27T00:36:36.248Z,22.9701
2023-03-27T00:37:37.897Z,22.9578
2023-03-27T00:38:39.740Z,22.9615
2023-03-27T00:39:41.222Z,22.9531
2023-03-27T00:40:42.855Z,22.9615
2023-03-27T00:41:44.531Z,22.9603
2023-03-27T00:42:46.152Z,22.9646
2023-03-27T00:43:47.816Z,22.9710
2023-03-27T00:44:49.442Z,22.9666
2023-03-27T00:45:51.126Z,22.9607
2023-03-27T00:46:52.803Z,22.9712
2023-03-27T00:47:54.428Z,22.9712
2023-03-27T00:48:56.047Z,22.9656
2023-03-27T00:49:57.728Z,22.9656
2023-03-27T00:50:59.356Z,22.9500
2023-03-27T00:52:01.058Z,22.9576
2023-03-27T00:53:02.657Z,22.9613
2023-03-27T00:54:04.329Z,22.9588
2023-03-27T00:55:05.985Z,22.9599
2023-03-27T00:56:07.650Z,22.9531
2023-03-27T00:57:09.333Z,22.9480
2023-03-27T00:58:10.946Z,22.9590
2023-03-27T00:59:12.606Z,22.9521
2023-03-27T01:00:14.282Z,22.9514
2023-03-27T01:01:15.904Z,22.9568
2023-03-27T01:02:17.596Z,22.9549
2023-03-27T01:03:19.275Z,22.9679
2023-03-27T01:04:20.849Z,22.9611
2023-03-27T01:05:22.487Z,22.9601
2023-03-27T01:06:24.149Z,22.9586
2023-03-27T01:07:25.788Z,22.9646
2023-03-27T01:08:27.451Z,22.9447
2023-03-27T01:09:29.084Z,22.9402
2023-03-27T01:10:30.753Z,22.9475
2023-03-27T01:11:32.386Z,22.9521
2023-03-27T01:12:34.069Z,22.9498
2023-03-27T01:13:35.693Z,22.9443
2023-03-27T01:14:37.362Z,22.9328
2023-03-27T01:15:39.013Z,22.9397
2023-03-27T01:16:40.663Z,22.9330
2023-03-27T01:17:42.358Z,22.9432
2023-03-27T01:18:43.946Z,22.9510
2023-03-27T01:19:45.594Z,22.9369
2023-03-27T01:20:47.345Z,22.9303
2023-03-27T01:21:48.904Z,22.9254
2023-03-27T01:22:50.599Z,22.9227
2023-03-27T01:23:59.354Z,22.9204
2023-03-27T01:24:53.889Z,22.9293
2023-03-27T01:25:55.500Z,22.9276
2023-03-27T01:26:57.168Z,22.9239
2023-03-27T01:27:58.832Z,22.9311
2023-03-27T01:29:00.477Z,22.9229
2023-03-27T01:30:02.109Z,22.9336
2023-03-27T01:31:03.798Z,22.9389
2023-03-27T01:32:05.414Z,22.9348
2023-03-27T01:33:07.174Z,22.9338
2023-03-27T01:34:08.718Z,22.9307
2023-03-27T01:35:10.398Z,22.9229
2023-03-27T01:36:12.042Z,22.9274
2023-03-27T01:37:13.706Z,22.9204
2023-03-27T01:38:15.355Z,22.9239
2023-03-27T01:39:17.013Z,22.9229
2023-03-27T01:40:18.639Z,22.9272
2023-03-27T01:41:20.316Z,22.9284
2023-03-27T01:42:21.948Z,22.9272
2023-03-27T01:43:23.647Z,22.9239
2023-03-27T01:44:25.247Z,22.9196
2023-03-27T01:45:26.919Z,22.9241
2023-03-27T01:46:28.587Z,22.9137
2023-03-27T01:47:30.237Z,22.9149
2023-03-27T01:48:31.929Z,22.9196
2023-03-27T01:49:33.531Z,22.9110
2023-03-27T01:50:35.152Z,22.9169
2023-03-27T01:51:36.839Z,22.9106
2023-03-27T01:52:38.488Z,22.9139
2023-03-27T01:53:40.294Z,22.9081
2023-03-27T01:54:41.782Z,22.9040
2023-03-27T01:55:43.441Z,22.9079
2023-03-27T01:56:45.091Z,22.9038
2023-03-27T01:57:48.961Z,22.9003
2023-03-27T01:58:48.405Z,22.9093
2023-03-27T01:59:50.061Z,22.8974
2023-03-27T02:01:04.110Z,22.9028
2023-03-27T02:01:53.357Z,22.9054
2023-03-27T02:02:55.009Z,22.9048
2023-03-27T02:03:56.701Z,22.9017
2023-03-27T02:04:58.322Z,22.9015
2023-03-27T02:05:59.962Z,22.9114
2023-03-27T02:07:01.597Z,22.9077
2023-03-27T02:08:03.282Z,22.9102
2023-03-27T02:09:04.911Z,22.9128
2023-03-27T02:10:06.581Z,22.9038
2023-03-27T02:11:08.284Z,22.8962
2023-03-27T02:12:09.946Z,22.8911
2023-03-27T02:13:11.584Z,22.8982
2023-03-27T02:14:13.278Z,22.8931
2023-03-27T02:15:23.659Z,22.8987
2023-03-27T02:16:16.641Z,22.8921
2023-03-27T02:17:18.201Z,22.8985
2023-03-27T02:18:19.881Z,22.8849
2023-03-27T02:19:21.537Z,22.8777
2023-03-27T02:20:23.186Z,22.8787
2023-03-27T02:21:24.846Z,22.8818
2023-03-27T02:22:38.137Z,22.8849
2023-03-27T02:23:28.132Z,22.8900
2023-03-27T02:24:29.867Z,22.8900
2023-03-27T02:25:31.457Z,22.8880
2023-03-27T02:26:33.125Z,22.8890
2023-03-27T02:27:34.743Z,22.8869
2023-03-27T02:28:36.415Z,22.8954
2023-03-27T02:29:38.080Z,22.8878
2023-03-27T02:30:39.735Z,22.8798
2023-03-27T02:31:41.430Z,22.8734
2023-03-27T02:32:43.163Z,22.8798
2023-03-27T02:33:44.681Z,22.8775
2023-03-27T02:34:46.338Z,22.8775
2023-03-27T02:35:48.022Z,22.8744
2023-03-27T02:36:49.646Z,22.8732
2023-03-27T02:37:51.314Z,22.8707
2023-03-27T02:38:52.950Z,22.8709
2023-03-27T02:39:54.638Z,22.8611
2023-03-27T02:40:56.396Z,22.8563
2023-03-27T02:41:57.911Z,22.8557
2023-03-27T02:42:59.577Z,22.8500
2023-03-27T02:44:01.233Z,22.8448
2023-03-27T02:45:02.891Z,22.8436
2023-03-27T02:46:04.625Z,22.8448
2023-03-27T02:47:06.181Z,22.8520
2023-03-27T02:48:07.900Z,22.8533
2023-03-27T02:49:09.484Z,22.8498
2023-03-27T02:50:11.227Z,22.8489
2023-03-27T02:51:12.803Z,22.8426
2023-03-27T02:52:14.464Z,22.8487
2023-03-27T02:53:16.104Z,22.8414
2023-03-27T02:54:17.766Z,22.8368
2023-03-27T02:55:19.426Z,22.8360
2023-03-27T02:56:21.097Z,22.8294
2023-03-27T02:57:24.967Z,22.8309
2023-03-27T02:58:24.391Z,22.8348
2023-03-27T02:59:26.016Z,22.8286
2023-03-27T03:00:27.712Z,22.8342
2023-03-27T03:01:29.365Z,22.8303
2023-03-27T03:02:31.065Z,22.8173
2023-03-27T03:03:32.646Z,22.8284
2023-03-27T03:04:34.307Z,22.8251
2023-03-27T03:05:35.961Z,22.8227
2023-03-27T03:06:37.608Z,22.8274
2023-03-27T03:07:39.248Z,22.8313
2023-03-27T03:08:40.919Z,22.8296
2023-03-27T03:09:42.555Z,22.8241
2023-03-27T03:10:44.241Z,22.8276
2023-03-27T03:11:45.849Z,22.8264
2023-03-27T03:12:47.515Z,22.8134
2023-03-27T03:13:49.147Z,22.8196
2023-03-27T03:14:50.831Z,22.8151
2023-03-27T03:15:52.507Z,22.8251
2023-03-27T03:16:54.177Z,22.8151
2023-03-27T03:17:55.780Z,22.8101
2023-03-27T03:18:57.451Z,22.8114
2023-03-27T03:19:59.069Z,22.8099
2023-03-27T03:21:00.782Z,22.8040
2023-03-27T03:22:02.386Z,22.8163
2023-03-27T03:23:04.056Z,22.8149
2023-03-27T03:24:05.696Z,22.8089
2023-03-27T03:25:07.370Z,22.8064
2023-03-27T03:26:09.022Z,22.7964
2023-03-27T03:27:10.693Z,22.7980
2023-03-27T03:28:12.303Z,22.8031
2023-03-27T03:29:13.972Z,22.8003
2023-03-27T03:30:16.985Z,22.7902
2023-03-27T03:31:17.362Z,22.7935
2023-03-27T03:32:18.916Z,22.7879
2023-03-27T03:33:20.582Z,22.7943
2023-03-27T03:34:22.203Z,22.7852
2023-03-27T03:35:23.898Z,22.7836
2023-03-27T03:36:25.526Z,22.7836
2023-03-27T03:37:27.178Z,22.7845
2023-03-27T03:38:28.815Z,22.7793
2023-03-27T03:39:30.490Z,22.7873
2023-03-27T03:40:32.112Z,22.7785
2023-03-27T03:41:33.804Z,22.7795
2023-03-27T03:42:35.422Z,22.7773
2023-03-27T03:43:37.086Z,22.7814
2023-03-27T03:44:38.741Z,22.7699
2023-03-27T03:45:40.395Z,22.7707
2023-03-27T03:46:42.041Z,22.7793
2023-03-27T03:47:43.725Z,22.7721
2023-03-27T03:48:45.317Z,22.7729
2023-03-27T03:49:46.993Z,22.7742
2023-03-27T03:50:48.623Z,22.7729
2023-03-27T03:52:03.775Z,22.7662
2023-03-27T03:52:51.921Z,22.7641
2023-03-27T03:53:53.586Z,22.7656
2023-03-27T03:54:55.239Z,22.7590
2023-03-27T03:55:56.883Z,22.7742
2023-03-27T03:56:58.557Z,22.7584
2023-03-27T03:58:00.192Z,22.7598
2023-03-27T03:59:01.846Z,22.7631
2023-03-27T04:00:03.504Z,22.7594
2023-03-27T04:01:05.126Z,22.7631
2023-03-27T04:02:06.837Z,22.7540
2023-03-27T04:03:08.640Z,22.7610
2023-03-27T04:04:10.104Z,22.7643
2023-03-27T04:05:11.745Z,22.7497
2023-03-27T04:06:13.419Z,22.7516
2023-03-27T04:07:15.060Z,22.7462
2023-03-27T04:08:16.715Z,22.7378
2023-03-27T04:09:18.341Z,22.7510
2023-03-27T04:10:20.048Z,22.7397
2023-03-27T04:11:21.660Z,22.7378
2023-03-27T04:12:23.353Z,22.7417
2023-03-27T04:13:24.987Z,22.7366
2023-03-27T04:14:26.622Z,22.7314
2023-03-27T04:15:28.266Z,22.7325
2023-03-27T04:16:29.994Z,22.7358
2023-03-27T04:17:31.622Z,22.7284
2023-03-27T04:18:33.367Z,22.7325
2023-03-27T04:19:34.888Z,22.7202
2023-03-27T04:20:36.537Z,22.7232
2023-03-27T04:21:38.158Z,22.7282
2023-03-27T04:22:39.847Z,22.7284
2023-03-27T04:23:41.463Z,22.7460
2023-03-27T04:24:43.140Z,22.7715
2023-03-27T04:25:44.810Z,22.7666
2023-03-27T04:26:46.441Z,22.7742
2023-03-27T04:27:48.088Z,22.7873
2023-03-27T04:28:49.730Z,22.8101
2023-03-27T04:29:51.369Z,22.8428
2023-03-27T04:30:53.038Z,22.8668
2023-03-27T04:31:54.681Z,22.8933
2023-03-27T04:32:56.389Z,22.8978
2023-03-27T04:33:57.977Z,22.9075
2023-03-27T04:34:59.651Z,22.9194
2023-03-27T04:36:06.360Z,22.9340
2023-03-27T04:37:02.958Z,22.7239
2023-03-27T04:38:04.616Z,22.5889
2023-03-27T04:39:06.260Z,22.5507
2023-03-27T04:40:07.892Z,22.5918
2023-03-27T04:41:09.545Z,22.6027
2023-03-27T04:42:11.178Z,22.6203
2023-03-27T04:43:12.887Z,22.6267
2023-03-27T04:44:14.493Z,22.6057
2023-03-27T04:45:16.190Z,22.6528
2023-03-27T04:46:17.825Z,22.6649
2023-03-27T04:47:19.476Z,22.6606
2023-03-27T04:48:21.140Z,22.7193
2023-03-27T04:49:22.780Z,22.7430
2023-03-27T04:50:24.403Z,22.7485
2023-03-27T04:51:26.089Z,22.7508
2023-03-27T04:52:27.725Z,22.7499
2023-03-27T04:53:29.556Z,22.7187
2023-03-27T04:54:31.055Z,22.6971
2023-03-27T04:55:32.680Z,22.7132
2023-03-27T04:56:34.363Z,22.7423
2023-03-27T04:57:35.987Z,22.7144
2023-03-27T04:58:37.945Z,22.7187
2023-03-27T04:59:39.301Z,22.6980
2023-03-27T05:00:40.987Z,22.6616
2023-03-27T05:01:42.606Z,22.5811
2023-03-27T05:02:44.270Z,22.4922
2023-03-27T05:03:45.976Z,22.4905
2023-03-27T05:04:47.551Z,22.5191
2023-03-27T05:05:49.190Z,22.5090
2023-03-27T05:06:50.872Z,22.5143
2023-03-27T05:07:52.580Z,22.5102
2023-03-27T05:08:54.177Z,22.5378
2023-03-27T05:09:55.777Z,22.5532
2023-03-27T05:10:57.712Z,22.5797
2023-03-27T05:11:59.098Z,22.5891
2023-03-27T05:13:00.769Z,22.5953
2023-03-27T05:14:02.426Z,22.6078
2023-03-27T05:15:04.089Z,22.6489
2023-03-27T05:16:05.720Z,22.6733
2023-03-27T05:17:07.374Z,22.6785
2023-03-27T05:18:09.322Z,22.6594
2023-03-27T05:19:10.767Z,22.6797
2023-03-27T05:20:12.319Z,22.6914
2023-03-27T05:21:13.974Z,22.6939
2023-03-27T05:22:15.626Z,22.6795
2023-03-27T05:23:17.288Z,22.7004
2023-03-27T05:24:18.931Z,22.7015
2023-03-27T05:25:20.586Z,22.7273
2023-03-27T05:26:22.215Z,22.7368
2023-03-27T05:27:23.923Z,22.7639
2023-03-27T05:28:25.525Z,22.7629
2023-03-27T05:29:27.232Z,22.7025
2023-03-27T05:30:28.927Z,22.7282
2023-03-27T05:31:30.573Z,22.7417
2023-03-27T05:32:32.170Z,22.7158
2023-03-27T05:33:33.785Z,22.7041
2023-03-27T05:34:35.496Z,22.7378
2023-03-27T05:35:37.125Z,22.7427
2023-03-27T05:36:38.773Z,22.7508
2023-03-27T05:37:40.405Z,22.7949
2023-03-27T05:38:42.064Z,22.7972
2023-03-27T05:39:43.732Z,22.8114
2023-03-27T05:40:45.374Z,22.8122
2023-03-27T05:41:47.005Z,22.8227
2023-03-27T05:42:48.674Z,22.8261
2023-03-27T05:43:51.241Z,22.8305
2023-03-27T05:44:51.996Z,22.8352
2023-03-27T05:45:53.626Z,22.8537
2023-03-27T05:46:55.291Z,22.8414
2023-03-27T05:47:56.991Z,22.8465
2023-03-27T05:48:58.592Z,22.8352
2023-03-27T05:50:00.249Z,22.8414
2023-03-27T05:51:01.903Z,22.8305
2023-03-27T05:52:03.510Z,22.8249
2023-03-27T05:53:05.200Z,22.8019
2023-03-27T05:54:06.809Z,22.8009
2023-03-27T05:55:08.523Z,22.7904
2023-03-27T05:56:10.116Z,22.7914
2023-03-27T05:57:11.914Z,22.8015
2023-03-27T05:58:13.462Z,22.8101
2023-03-27T05:59:15.077Z,22.7937
2023-03-27T06:00:16.762Z,22.8149
2023-03-27T06:01:18.388Z,22.8089
2023-03-27T06:02:21.517Z,22.8120
2023-03-27T06:03:21.876Z,22.8101
2023-03-27T06:04:23.358Z,22.8146
2023-03-27T06:05:25.023Z,22.8179
2023-03-27T06:06:26.637Z,22.8109
2023-03-27T06:07:28.305Z,22.8284
2023-03-27T06:08:29.933Z,22.8194
2023-03-27T06:09:31.583Z,22.8307
2023-03-27T06:10:33.250Z,22.8216
2023-03-27T06:11:34.889Z,22.7980
2023-03-27T06:12:36.526Z,22.7980
2023-03-27T06:13:38.260Z,22.7935
2023-03-27T06:14:39.906Z,22.7894
2023-03-27T06:15:41.635Z,22.7945
2023-03-27T06:16:43.201Z,22.7900
2023-03-27T06:17:44.894Z,22.7760
2023-03-27T06:18:46.498Z,22.7740
2023-03-27T06:19:48.184Z,22.7672
2023-03-27T06:20:49.815Z,22.7495
2023-03-27T06:21:51.460Z,22.7345
2023-03-27T06:22:53.104Z,22.7376
2023-03-27T06:23:54.763Z,22.7339
2023-03-27T06:24:56.389Z,22.7199
2023-03-27T06:25:58.378Z,22.7033
2023-03-27T06:26:59.691Z,22.7004
2023-03-27T06:28:01.364Z,22.6850
2023-03-27T06:29:08.142Z,22.6828
2023-03-27T06:30:04.676Z,22.6797
2023-03-27T06:31:06.355Z,22.6861
2023-03-27T06:32:07.981Z,22.6754
2023-03-27T06:33:09.621Z,22.6672
2023-03-27T06:34:11.284Z,22.6587
2023-03-27T06:35:12.896Z,22.6672
2023-03-27T06:36:14.625Z,22.6723
2023-03-27T06:37:16.181Z,22.6713
2023-03-27T06:38:17.862Z,22.6554
2023-03-27T06:39:19.479Z,22.6520
2023-03-27T06:40:21.139Z,22.6400
2023-03-27T06:41:22.802Z,22.6446
2023-03-27T06:42:24.445Z,22.6439
2023-03-27T06:43:26.075Z,22.6300
2023-03-27T06:44:27.738Z,22.6244
2023-03-27T06:45:29.393Z,22.6255
2023-03-27T06:46:42.688Z,22.6226
2023-03-27T06:47:36.382Z,22.6140
2023-03-27T06:48:34.366Z,22.6070
2023-03-27T06:49:35.975Z,22.6156
2023-03-27T06:50:37.629Z,22.6004
2023-03-27T06:51:39.281Z,22.6039
2023-03-27T06:52:40.928Z,22.5895
2023-03-27T06:53:42.558Z,22.5946
2023-03-27T06:54:44.216Z,22.5879
2023-03-27T06:55:45.868Z,22.5905
2023-03-27T06:56:47.610Z,22.5946
2023-03-27T06:57:49.166Z,22.5971
2023-03-27T06:58:50.836Z,22.5914
2023-03-27T06:59:52.488Z,22.5807
2023-03-27T07:00:54.129Z,22.5850
2023-03-27T07:01:55.830Z,22.5788
2023-03-27T07:02:57.420Z,22.5862
2023-03-27T07:03:59.065Z,22.5883
2023-03-27T07:05:04.649Z,22.5776
2023-03-27T07:06:02.556Z,22.5817
2023-03-27T07:07:04.049Z,22.5766
2023-03-27T07:08:18.997Z,22.5673
2023-03-27T07:09:07.318Z,22.5807
2023-03-27T07:10:08.962Z,22.5679
2023-03-27T07:11:12.266Z,22.5776
2023-03-27T07:12:12.278Z,22.5725
2023-03-27T07:13:13.919Z,22.5632
2023-03-27T07:14:15.589Z,22.5550
2023-03-27T07:15:17.295Z,22.5558
2023-03-27T07:16:18.892Z,22.5556
2023-03-27T07:17:20.532Z,22.5534
2023-03-27T07:18:22.216Z,22.5443
2023-03-27T07:19:23.822Z,22.5474
2023-03-27T07:20:25.473Z,22.5441
2023-03-27T07:21:27.137Z,22.5466
2023-03-27T07:22:28.799Z,22.5474
2023-03-27T07:23:30.435Z,22.5419
2023-03-27T07:24:32.060Z,22.5466
2023-03-27T07:25:33.744Z,22.5353
2023-03-27T07:26:35.354Z,22.5363
2023-03-27T07:27:37.063Z,22.5330
2023-03-27T07:28:38.729Z,22.5279
2023-03-27T07:29:40.337Z,22.5246
2023-03-27T07:30:41.983Z,22.5299
2023-03-27T07:31:57.525Z,22.5343
2023-03-27T07:32:45.408Z,22.5378
2023-03-27T07:33:47.068Z,22.5353
2023-03-27T07:34:48.579Z,22.5332
2023-03-27T07:35:50.256Z,22.5488
2023-03-27T07:36:51.894Z,22.5464
2023-03-27T07:37:53.579Z,22.5532
2023-03-27T07:38:55.184Z,22.5353
2023-03-27T07:39:56.847Z,22.5501
2023-03-27T07:40:58.504Z,22.5423
2023-03-27T07:42:00.164Z,22.5320
2023-03-27T07:43:01.834Z,22.5456
2023-03-27T07:44:03.464Z,22.5353
2023-03-27T07:45:05.090Z,22.5390
2023-03-27T07:46:06.803Z,22.5299
2023-03-27T07:47:08.397Z,22.5236
2023-03-27T07:48:10.087Z,22.5082
2023-03-27T07:49:11.685Z,22.5071
2023-03-27T07:50:13.380Z,22.5014
2023-03-27T07:51:14.982Z,22.5012
2023-03-27T07:52:16.738Z,22.5119
2023-03-27T07:53:32.806Z,22.5024
2023-03-27T07:54:19.945Z,22.5108
2023-03-27T07:55:21.582Z,22.4993
2023-03-27T07:56:23.276Z,22.4983
2023-03-27T07:57:25.041Z,22.5047
2023-03-27T07:58:26.857Z,22.4981
2023-03-27T07:59:28.197Z,22.5047
2023-03-27T08:00:29.980Z,22.4991
2023-03-27T08:01:31.480Z,22.4993
2023-03-27T08:02:33.188Z,22.4936
2023-03-27T08:03:34.922Z,22.4829
2023-03-27T08:04:36.584Z,22.4821
2023-03-27T08:05:38.080Z,22.4819
2023-03-27T08:06:39.751Z,22.4819
2023-03-27T08:07:41.389Z,22.4788
2023-03-27T08:08:43.092Z,22.4860
2023-03-27T08:09:44.697Z,22.4872
2023-03-27T08:10:46.361Z,22.4950
2023-03-27T08:11:48.010Z,22.5037
2023-03-27T08:12:49.668Z,22.5074
2023-03-27T08:13:51.330Z,22.5059
2023-03-27T08:14:52.968Z,22.5117
2023-03-27T08:15:54.750Z,22.5061
2023-03-27T08:17:08.648Z,22.5094
2023-03-27T08:17:57.937Z,22.5094
2023-03-27T08:18:59.640Z,22.5094
2023-03-27T08:20:01.226Z,22.4940
2023-03-27T08:21:02.957Z,22.4971
2023-03-27T08:22:04.501Z,22.4981
2023-03-27T08:23:06.191Z,22.5012
2023-03-27T08:24:07.833Z,22.4993
2023-03-27T08:25:09.502Z,22.4971
2023-03-27T08:26:11.101Z,22.5014
2023-03-27T08:27:12.798Z,22.5047
2023-03-27T08:28:14.433Z,22.4973
2023-03-27T08:29:16.138Z,22.5061
2023-03-27T08:30:17.794Z,22.4948
2023-03-27T08:31:19.487Z,22.5049
2023-03-27T08:32:21.035Z,22.5041
2023-03-27T08:33:22.739Z,22.5100
2023-03-27T08:34:24.397Z,22.5006
2023-03-27T08:35:26.026Z,22.4991
2023-03-27T08:36:27.632Z,22.4891
2023-03-27T08:37:29.265Z,22.4876
2023-03-27T08:38:30.964Z,22.4905
2023-03-27T08:39:32.630Z,22.4880
2023-03-27T08:40:34.219Z,22.4905
2023-03-27T08:41:35.882Z,22.4963
2023-03-27T08:42:37.556Z,22.4882
2023-03-27T08:43:39.142Z,22.4839
2023-03-27T08:44:40.873Z,22.4991
2023-03-27T08:45:42.470Z,22.4985
2023-03-27T08:46:44.136Z,22.4895
2023-03-27T08:48:48.556Z,22.4903
2023-03-27T08:49:50.144Z,22.4757
2023-03-27T08:50:51.817Z,22.4757
2023-03-27T08:51:53.406Z,22.4663
2023-03-27T08:52:55.059Z,22.4650
2023-03-27T08:53:56.719Z,22.4502
2023-03-27T08:54:58.502Z,22.4422
2023-03-27T08:56:00.003Z,22.4531
2023-03-27T08:57:01.759Z,22.4410
2023-03-27T08:58:03.334Z,22.4396
2023-03-27T08:59:04.992Z,22.4398
2023-03-27T09:00:06.650Z,22.4314
2023-03-27T09:01:08.301Z,22.4281
2023-03-27T09:02:09.989Z,22.4196
2023-03-27T09:03:11.721Z,22.4248
2023-03-27T09:04:13.218Z,22.4279
2023-03-27T09:05:14.931Z,22.4346
2023-03-27T09:06:16.567Z,22.4392
2023-03-27T09:07:18.188Z,22.4332
2023-03-27T09:08:19.804Z,22.4250
2023-03-27T09:09:21.461Z,22.4299
2023-03-27T09:10:23.199Z,22.4301
2023-03-27T09:11:24.804Z,22.4303
2023-03-27T09:12:26.430Z,22.4217
2023-03-27T09:13:28.027Z,22.4303
2023-03-27T09:14:29.686Z,22.4332
2023-03-27T09:15:31.384Z,22.4367
2023-03-27T09:16:33.122Z,22.4344
2023-03-27T09:17:34.683Z,22.4301
2023-03-27T09:18:36.316Z,22.4332
2023-03-27T09:19:37.947Z,22.4248
2023-03-27T09:20:39.662Z,22.4258
2023-03-27T09:21:41.229Z,22.4094
2023-03-27T09:22:42.904Z,22.4092
2023-03-27T09:23:44.523Z,22.4145
2023-03-27T09:24:46.236Z,22.4051
2023-03-27T09:25:47.926Z,22.4081
2023-03-27T09:27:01.072Z,22.4081
2023-03-27T09:27:51.132Z,22.4111
2023-03-27T09:28:52.806Z,22.4028
2023-03-27T09:30:05.960Z,22.4026
2023-03-27T09:30:56.226Z,22.4076
2023-03-27T09:31:57.744Z,22.4186
2023-03-27T09:32:59.448Z,22.4164
2023-03-27T09:34:01.001Z,22.4145
2023-03-27T09:35:02.752Z,22.4176
2023-03-27T09:36:04.460Z,22.4092
2023-03-27T09:37:06.056Z,22.3970
2023-03-27T09:38:07.640Z,22.4026
2023-03-27T09:39:09.314Z,22.4069
2023-03-27T09:40:10.954Z,22.4083
2023-03-27T09:41:12.634Z,22.4092
2023-03-27T09:42:14.238Z,22.4122
2023-03-27T09:43:15.920Z,22.4090
2023-03-27T09:44:17.596Z,22.4178
2023-03-27T09:45:19.301Z,22.4186
2023-03-27T09:46:20.933Z,22.4229
2023-03-27T09:47:22.520Z,22.4196
2023-03-27T09:48:24.185Z,22.4166
2023-03-27T09:49:25.814Z,22.4155
2023-03-27T09:50:27.945Z,22.4135
2023-03-27T09:51:29.269Z,22.4059
2023-03-27T09:52:30.711Z,22.4145
2023-03-27T09:53:32.434Z,22.4207
2023-03-27T09:54:34.058Z,22.4145
2023-03-27T09:55:35.717Z,22.4053
2023-03-27T09:56:37.392Z,22.4071
2023-03-27T09:57:39.077Z,22.4018
2023-03-27T09:58:40.678Z,22.3940
2023-03-27T09:59:42.307Z,22.4028
2023-03-27T10:00:44.031Z,22.4059
2023-03-27T10:01:45.632Z,22.4038
2023-03-27T10:02:47.297Z,22.3983
2023-03-27T10:03:49.108Z,22.3970
2023-03-27T10:04:50.548Z,22.3973
2023-03-27T10:05:52.216Z,22.4018
2023-03-27T10:06:53.852Z,22.4049
2023-03-27T10:07:55.522Z,22.4061
2023-03-27T10:08:57.165Z,22.4007
2023-03-27T10:09:58.836Z,22.3927
2023-03-27T10:11:00.485Z,22.3929
2023-03-27T10:12:02.190Z,22.3903
2023-03-27T10:13:03.767Z,22.3940
2023-03-27T10:14:05.454Z,22.3929
2023-03-27T10:15:07.112Z,22.3962
2023-03-27T10:16:08.837Z,22.3892
2023-03-27T10:17:10.450Z,22.3860
2023-03-27T10:18:12.199Z,22.3917
2023-03-27T10:19:13.855Z,22.3892
2023-03-27T10:20:15.491Z,22.3802
2023-03-27T10:21:17.100Z,22.3917
2023-03-27T10:22:18.766Z,22.3905
2023-03-27T10:23:20.359Z,22.3983
2023-03-27T10:24:22.005Z,22.3948
2023-03-27T10:25:23.678Z,22.3882
2023-03-27T10:26:25.343Z,22.3880
2023-03-27T10:27:26.976Z,22.3829
2023-03-27T10:28:28.609Z,22.3952
2023-03-27T10:29:30.262Z,22.3751
2023-03-27T10:30:31.912Z,22.3829
2023-03-27T10:31:33.588Z,22.3864
2023-03-27T10:32:35.268Z,22.3794
2023-03-27T10:33:36.885Z,22.3841
2023-03-27T10:34:38.517Z,22.3927
2023-03-27T10:35:40.179Z,22.3927
2023-03-27T10:36:41.842Z,22.3948
2023-03-27T10:37:49.773Z,22.3882
2023-03-27T10:38:45.132Z,22.3802
2023-03-27T10:39:46.756Z,22.3847
2023-03-27T10:40:48.426Z,22.3882
2023-03-27T10:41:50.067Z,22.3837
2023-03-27T10:42:51.782Z,22.3874
2023-03-27T10:43:53.360Z,22.3857
2023-03-27T10:44:55.030Z,22.3860
2023-03-27T10:45:56.764Z,22.3849
2023-03-27T10:46:58.347Z,22.3952
2023-03-27T10:48:00.038Z,22.3995
2023-03-27T10:49:01.635Z,22.4073
2023-03-27T10:50:03.267Z,22.4092
2023-03-27T10:51:04.945Z,22.3983
2023-03-27T10:52:06.560Z,22.3975
2023-03-27T10:53:08.336Z,22.4028
2023-03-27T10:54:09.902Z,22.3970
2023-03-27T10:55:11.537Z,22.4007
2023-03-27T10:56:13.176Z,22.3995
2023-03-27T10:57:14.868Z,22.4053
2023-03-27T10:58:16.481Z,22.4083
2023-03-27T10:59:21.509Z,22.3940
2023-03-27T11:00:19.763Z,22.3913
2023-03-27T11:01:21.505Z,22.3839
2023-03-27T11:02:23.115Z,22.3835
2023-03-27T11:03:24.807Z,22.4003
2023-03-27T11:04:26.378Z,22.4079
2023-03-27T11:05:28.092Z,22.4053
2023-03-27T11:06:29.698Z,22.3985
2023-03-27T11:07:31.369Z,22.3970
2023-03-27T11:08:33.062Z,22.4040
2023-03-27T11:09:34.708Z,22.4081
2023-03-27T11:10:36.320Z,22.3899
2023-03-27T11:11:38.031Z,22.3960
2023-03-27T11:12:39.608Z,22.3985
2023-03-27T11:13:41.279Z,22.3950
2023-03-27T11:14:42.917Z,22.4051
2023-03-27T11:15:44.608Z,22.3886
2023-03-27T11:16:46.242Z,22.3987
2023-03-27T11:17:47.905Z,22.3995
2023-03-27T11:18:49.573Z,22.3960
2023-03-27T11:19:51.176Z,22.4094
2023-03-27T11:20:52.789Z,22.4042
2023-03-27T11:21:54.485Z,22.3940
2023-03-27T11:22:56.138Z,22.3882
2023-03-27T11:23:57.926Z,22.3884
2023-03-27T11:24:59.429Z,22.3964
2023-03-27T11:26:01.075Z,22.3975
2023-03-27T11:27:02.754Z,22.3888
2023-03-27T11:28:04.444Z,22.3925
2023-03-27T11:29:06.059Z,22.3907
2023-03-27T11:30:07.705Z,22.3884
2023-03-27T11:31:12.112Z,22.3798
2023-03-27T11:32:10.995Z,22.3827
2023-03-27T11:33:12.608Z,22.3689
2023-03-27T11:34:14.345Z,22.3816
2023-03-27T11:35:15.923Z,22.3889
2023-03-27T11:36:17.619Z,22.3794
2023-03-27T11:37:19.217Z,22.3753
2023-03-27T11:38:20.911Z,22.3907
2023-03-27T11:39:22.626Z,22.3857
2023-03-27T11:40:24.232Z,22.3915
2023-03-27T11:41:25.847Z,22.3872
2023-03-27T11:42:27.604Z,22.3905
2023-03-27T11:43:29.135Z,22.3835
2023-03-27T11:44:30.847Z,22.3792
2023-03-27T11:45:32.452Z,22.3718
2023-03-27T11:46:34.168Z,22.3763
2023-03-27T11:47:35.759Z,22.3654
2023-03-27T11:48:37.394Z,22.3677
2023-03-27T11:49:39.141Z,22.3860
2023-03-27T11:50:40.750Z,22.3771
2023-03-27T11:51:42.403Z,22.3781
2023-03-27T11:52:43.997Z,22.3784
2023-03-27T11:53:45.684Z,22.3759
2023-03-27T11:54:47.379Z,22.3771
2023-03-27T11:55:49.008Z,22.3738
2023-03-27T11:56:50.643Z,22.3769
2023-03-27T11:57:52.278Z,22.3806
2023-03-27T11:58:53.917Z,22.3808
2023-03-27T11:59:55.616Z,22.3753
2023-03-27T12:00:57.393Z,22.3796
2023-03-27T12:01:58.936Z,22.3808
2023-03-27T12:03:00.574Z,22.3708
2023-03-27T12:04:02.320Z,22.3706
2023-03-27T12:05:03.866Z,22.3666
2023-03-27T12:06:05.556Z,22.3634
2023-03-27T12:07:09.836Z,22.3656
2023-03-27T12:08:08.790Z,22.3738
2023-03-27T12:09:10.428Z,22.3806
2023-03-27T12:10:12.140Z,22.3720
2023-03-27T12:11:13.716Z,22.3677
2023-03-27T12:12:15.391Z,22.3697
2023-03-27T12:13:17.021Z,22.3634
2023-03-27T12:14:19.140Z,22.3664
2023-03-27T12:15:20.421Z,22.3720
2023-03-27T12:16:22.092Z,22.3560
2023-03-27T12:17:23.725Z,22.3632
2023-03-27T12:18:35.277Z,22.3623
2023-03-27T12:19:29.680Z,22.3613
2023-03-27T12:20:28.745Z,22.3568
2023-03-27T12:21:30.330Z,22.3558
2023-03-27T12:22:31.921Z,22.3708
2023-03-27T12:23:33.522Z,22.3763
2023-03-27T12:24:35.196Z,22.3568
2023-03-27T12:25:36.931Z,22.3646
2023-03-27T12:26:38.626Z,22.3710